Flight Track Log - Related Links

Times and Time Zones

All times are in EDT time to prevent confusion due to time zone crossing. See the N614MM flight status page for this flight to view local times or setup timezone preferences in your user account.

Time Position Orientation Groundspeed Altitude Reporting Facility
EDT Latitude Longitude Course Direction KTS MPH feet Rate Location/Type
Sun 01:29:54 PM 25.9125 -80.2669 82° East 100 115 300  Level Miami Center
Sun 01:31:01 PM 25.9167 -80.2325 82° East 107 123 1,200 732 Climbing Miami Center
Sun 01:31:16 PM 25.9181 -80.2297 61° Northeast 100 115 1,300 581 Climbing Miami Center
Sun 01:32:03 PM 25.9211 -80.1981 84° East 107 123 1,800 581 Climbing Miami Center
Sun 01:32:18 PM 25.9242 -80.1900 67° East 106 122 1,900 500 Climbing Miami Center
Sun 01:33:03 PM 25.9508 -80.1889 North 131 151 2,300 571 Climbing Miami Center
Sun 01:33:21 PM 25.9589 -80.1892 358° North 124 143 2,500 590 Climbing Miami Center
Sun 01:34:04 PM 25.9767 -80.2117 311° West 133 153 2,900 484 Climbing Miami Center
Sun 01:34:23 PM 25.9797 -80.2189 295° West 133 153 3,000 581 Climbing Miami Center
Sun 01:35:06 PM 25.9869 -80.2494 285° West 125 144 3,500 581 Climbing Miami Center
Sun 01:35:25 PM 25.9889 -80.2567 287° West 130 150 3,600 444 Climbing Miami Center
Sun 01:36:27 PM 26.0022 -80.2914 293° West 127 146 4,100 641 Climbing Miami Center
Sun 01:37:08 PM 26.0075 -80.3228 281° West 126 145 4,700 762 Climbing Miami Center
Sun 01:37:30 PM 26.0058 -80.3372 263° West 127 146 4,900 492 Climbing Miami Center
Sun 01:38:09 PM 26.0028 -80.3642 263° West 126 145 5,200 484 Climbing Miami Center
Sun 01:38:32 PM 26.0031 -80.3753 272° West 126 145 5,400 492 Climbing Miami Center
Sun 01:39:10 PM 26.0003 -80.4036 264° West 129 148 5,700 387 Climbing Miami Center
Sun 01:39:34 PM 25.9994 -80.4156 266° West 128 147 5,800 387 Climbing Miami Center
Sun 01:40:12 PM 25.9975 -80.4450 266° West 131 151 6,100 476 Climbing Miami Center
Sun 01:40:37 PM 25.9967 -80.4558 265° West 129 148 6,300 545 Climbing Miami Center
Sun 01:41:18 PM 25.9947 -80.4889 266° West 130 150 6,700 387 Climbing Miami Center
Sun 01:41:39 PM 25.9944 -80.4950 267° West 129 148 6,700 436 Level Miami Center
Sun 01:42:13 PM 25.9922 -80.5258 265° West 129 148 7,100 581 Climbing Miami Center
Sun 01:42:41 PM 25.9897 -80.5411 260° West 128 147 7,300 448 Climbing Miami Center
Sun 01:43:20 PM 25.9875 -80.5694 265° West 123 142 7,600 387 Climbing Miami Center
Sun 01:43:43 PM 25.9869 -80.5786 266° West 125 144 7,700 393 Climbing Miami Center
Sun 01:44:21 PM 26.0003 -80.5983 307° West 119 137 8,000 286 Climbing Miami Center
Sun 01:44:46 PM 26.0092 -80.6050 326° Northwest 118 136 8,000  Level Miami Center
Sun 01:45:16 PM 26.0281 -80.6214 322° Northwest 133 153 8,000  Level Miami Center
Sun 01:45:48 PM 26.0386 -80.6322 317° Northwest 133 153 8,000  Level Miami Center
Sun 01:46:18 PM 26.0575 -80.6514 318° Northwest 144 166 8,000  Level Miami Center
Sun 01:46:50 PM 26.0692 -80.6608 324° Northwest 140 161 8,000  Level Miami Center
Sun 01:47:19 PM 26.0911 -80.6797 322° Northwest 148 170 8,000  Level Miami Center
Sun 01:47:53 PM 26.1089 -80.6942 324° Northwest 149 171 8,000  Level Miami Center
Sun 01:48:55 PM 26.1392 -80.7289 314° West 154 177 8,000  Level Miami Center
Sun 01:49:57 PM 26.1706 -80.7614 317° Northwest 154 177 8,000  Level Miami Center
Sun 01:50:59 PM 26.2042 -80.7900 323° Northwest 153 176 8,000  Level Miami Center
Sun 01:52:02 PM 26.2414 -80.8253 320° Northwest 152 175 8,000  Level Miami Center
Sun 01:53:04 PM 26.2758 -80.8542 323° Northwest 152 175 8,000  Level Miami Center
Sun 01:54:06 PM 26.3114 -80.8853 322° Northwest 152 175 8,000  Level Miami Center
Sun 01:55:08 PM 26.3447 -80.9131 323° Northwest 151 174 8,000  Level Miami Center
Sun 01:56:10 PM 26.3803 -80.9458 320° Northwest 152 175 8,000  Level Miami Center
Sun 01:57:12 PM 26.4128 -80.9761 320° Northwest 152 175 8,000  Level Miami Center
Sun 01:58:14 PM 26.4475 -81.0031 325° Northwest 153 176 8,000  Level Miami Center
Sun 01:59:17 PM 26.4872 -81.0286 330° Northwest 153 176 8,000  Level Miami Center
Sun 02:00:19 PM 26.5200 -81.0583 321° Northwest 152 175 8,000  Level Miami Center
Sun 02:01:21 PM 26.5564 -81.0883 324° Northwest 153 176 8,000  Level Miami Center
Sun 02:02:23 PM 26.5892 -81.1172 322° Northwest 149 171 8,000  Level Miami Center
Sun 02:03:25 PM 26.6264 -81.1464 325° Northwest 153 176 8,000  Level Miami Center
Sun 02:04:27 PM 26.6639 -81.1717 329° Northwest 148 170 8,000  Level Miami Center
Sun 02:05:30 PM 26.6983 -81.1958 328° Northwest 146 168 8,000  Level Miami Center
Sun 02:06:32 PM 26.7353 -81.2206 329° Northwest 146 168 8,000  Level Miami Center
Sun 02:07:34 PM 26.7689 -81.2464 326° Northwest 146 168 8,000  Level Miami Center
Sun 02:08:36 PM 26.8022 -81.2758 322° Northwest 144 166 8,000  Level Miami Center
Sun 02:09:39 PM 26.8272 -81.3114 308° West 146 168 8,000  Level Miami Center
Sun 02:10:41 PM 26.8547 -81.3494 309° West 146 168 8,000  Level Miami Center
Sun 02:11:43 PM 26.8817 -81.3894 307° West 149 171 8,000  Level Miami Center
Sun 02:15:52 PM 26.9911 -81.5367 314° West 150 173 8,000  Level Miami Center
Sun 02:16:54 PM 27.0192 -81.5711 312° West 151 174 8,000  Level Miami Center
Sun 02:17:56 PM 27.0483 -81.6028 316° Northwest 151 174 8,000  Level Miami Center
Sun 02:18:58 PM 27.0753 -81.6397 309° West 151 174 8,000  Level Miami Center
Sun 02:20:00 PM 27.0726 -81.6786 314° West  Level FlightAware Approximate
Sun 02:20:00 PM 27.1039 -81.6753 312° West 152 175 8,000  Level Miami Center
Sun 02:21:00 PM 27.0994 -81.7094 314° West  Level FlightAware Approximate
Sun 02:21:02 PM 27.1361 -81.7183 310° West 152 175 8,000  Level Miami Center
Sun 02:22:04 PM 27.1614 -81.7558 307° West 152 175 8,000  Level Miami Center
Sun 02:23:07 PM 27.1883 -81.7939 309° West 154 177 8,000  Level Miami Center
Sun 02:24:09 PM 27.2142 -81.8306 308° West 153 176 8,000  Level Miami Center
Sun 02:25:11 PM 27.2397 -81.8669 308° West 152 175 8,000  Level Miami Center
Sun 02:26:13 PM 27.2658 -81.9036 309° West 150 173 8,000 -242 Level Miami Center
Sun 02:27:15 PM 27.2983 -81.9489 309° West 151 174 7,500 -484 Descending Miami Center
Sun 02:28:17 PM 27.3303 -81.9894 312° West 171 197 7,000 -435 Descending Miami Center
Sun 02:29:19 PM 27.3608 -82.0272 312° West 167 192 6,600 -532 Descending Miami Center
Sun 02:30:21 PM 27.3942 -82.0611 318° Northwest 163 188 5,900 -339 Descending Miami Center
Sun 02:31:23 PM 27.4225 -82.0992 310° West 159 183 5,900  Level Miami Center
Sun 02:32:25 PM 27.4497 -82.1325 313° West 147 169 5,900  Level Miami Center
Sun 02:33:27 PM 27.4833 -82.1703 315° West 144 166 5,900  Level Miami Center
Sun 02:34:29 PM 27.5189 -82.1889 335° Northwest 140 161 5,900 -242 Level Miami Center
Sun 02:35:31 PM 27.5544 -82.2131 329° Northwest 146 168 5,400 -532 Descending Miami Center
Sun 02:36:33 PM 27.5908 -82.2414 325° Northwest 156 180 4,800 -595 Descending Miami Center
Sun 02:37:32 PM 27.6333 -82.2667 332° Northwest 159 183 4,200 -584 Descending Tampa TRACON
Sun 02:38:26 PM 27.6667 -82.2833 336° Northwest 157 181 3,700 -550 Descending Tampa TRACON
Sun 02:39:21 PM 27.7000 -82.3167 318° Northwest 158 182 3,200 -421 Descending Tampa TRACON
Sun 02:40:20 PM 27.7333 -82.3333 336° Northwest 156 180 2,900 -286 Descending Tampa TRACON
Sun 02:41:27 PM 27.7833 -82.3500 344° North 150 173 2,600 -425 Descending Tampa TRACON
Sun 02:42:27 PM 27.8167 -82.3833 319° Northwest 153 176 2,000 -650 Descending Tampa TRACON
Sun 02:43:27 PM 27.8667 -82.4000 344° North 156 180 1,300 -571 Descending Tampa TRACON
Sun 02:44:33 PM 27.9000 -82.4333 319° Northwest 154 177 800 -250 Descending Tampa TRACON
Sun 02:45:27 PM 27.9167 -82.4333 360° North 118 136 800 -222 Level Tampa TRACON
Sun 02:46:21 PM 27.9333 -82.4333 360° North 98 113 400 -444 Descending Tampa TRACON
Sun 02:48:00 PM 27.9154 -82.4494 90° East  Level Estimated
Sun 02:55:00 PM 27.9154 -82.4494 90° East  Level Estimated
Sun 02:56:00 PM 27.9154 -82.4494 90° East  Level Estimated

Login

Don't have an account? Register now (free) for customized features, flight alerts, and more!